sensor_id;sensor_type;location;lat;lon;timestamp;P1;durP1;ratioP1;P2;durP2;ratioP2
27632;SDS011;15046;50.930;13.334;2023-02-21T00:01:53;9.85;;;5.00;;
27632;SDS011;15046;50.930;13.334;2023-02-21T00:04:37;9.35;;;5.13;;
27632;SDS011;15046;50.930;13.334;2023-02-21T00:07:22;9.30;;;4.78;;
27632;SDS011;15046;50.930;13.334;2023-02-21T00:10:06;11.52;;;5.32;;
27632;SDS011;15046;50.930;13.334;2023-02-21T00:12:52;8.85;;;4.63;;
27632;SDS011;15046;50.930;13.334;2023-02-21T00:15:36;7.25;;;3.83;;
27632;SDS011;15046;50.930;13.334;2023-02-21T00:18:20;9.10;;;3.95;;
27632;SDS011;15046;50.930;13.334;2023-02-21T00:21:05;7.72;;;4.10;;
27632;SDS011;15046;50.930;13.334;2023-02-21T00:23:49;8.75;;;3.78;;
27632;SDS011;15046;50.930;13.334;2023-02-21T00:26:34;7.82;;;3.67;;
27632;SDS011;15046;50.930;13.334;2023-02-21T00:29:18;7.13;;;3.38;;
27632;SDS011;15046;50.930;13.334;2023-02-21T00:32:03;8.57;;;3.45;;
27632;SDS011;15046;50.930;13.334;2023-02-21T00:34:48;5.95;;;2.92;;
27632;SDS011;15046;50.930;13.334;2023-02-21T00:37:32;6.53;;;3.53;;
27632;SDS011;15046;50.930;13.334;2023-02-21T00:40:17;5.38;;;2.67;;
27632;SDS011;15046;50.930;13.334;2023-02-21T00:43:01;7.20;;;3.67;;
27632;SDS011;15046;50.930;13.334;2023-02-21T00:45:46;6.88;;;3.30;;
27632;SDS011;15046;50.930;13.334;2023-02-21T00:48:30;6.38;;;3.38;;
27632;SDS011;15046;50.930;13.334;2023-02-21T00:51:14;6.70;;;3.30;;
27632;SDS011;15046;50.930;13.334;2023-02-21T00:53:59;6.82;;;3.45;;
27632;SDS011;15046;50.930;13.334;2023-02-21T00:56:43;5.35;;;2.92;;
27632;SDS011;15046;50.930;13.334;2023-02-21T00:59:28;10.82;;;3.13;;
27632;SDS011;15046;50.930;13.334;2023-02-21T01:02:12;7.18;;;2.90;;
27632;SDS011;15046;50.930;13.334;2023-02-21T01:04:56;6.10;;;3.28;;
27632;SDS011;15046;50.930;13.334;2023-02-21T01:07:41;6.05;;;3.17;;
27632;SDS011;15046;50.930;13.334;2023-02-21T01:10:26;6.07;;;2.83;;
27632;SDS011;15046;50.930;13.334;2023-02-21T01:13:10;11.70;;;3.50;;
27632;SDS011;15046;50.930;13.334;2023-02-21T01:15:54;8.88;;;3.10;;
27632;SDS011;15046;50.930;13.334;2023-02-21T01:18:39;7.13;;;3.35;;
27632;SDS011;15046;50.930;13.334;2023-02-21T01:21:23;6.75;;;2.90;;
27632;SDS011;15046;50.930;13.334;2023-02-21T01:24:08;6.35;;;3.22;;
27632;SDS011;15046;50.930;13.334;2023-02-21T01:26:55;5.60;;;2.80;;
27632;SDS011;15046;50.930;13.334;2023-02-21T01:29:39;8.82;;;3.35;;
27632;SDS011;15046;50.930;13.334;2023-02-21T01:32:23;5.75;;;3.00;;
27632;SDS011;15046;50.930;13.334;2023-02-21T01:35:08;6.40;;;3.30;;
27632;SDS011;15046;50.930;13.334;2023-02-21T01:37:52;5.88;;;2.75;;
27632;SDS011;15046;50.930;13.334;2023-02-21T01:40:36;6.60;;;3.13;;
27632;SDS011;15046;50.930;13.334;2023-02-21T01:43:22;6.03;;;2.58;;
27632;SDS011;15046;50.930;13.334;2023-02-21T01:46:16;6.40;;;3.03;;
27632;SDS011;15046;50.930;13.334;2023-02-21T01:49:04;5.13;;;2.22;;
27632;SDS011;15046;50.930;13.334;2023-02-21T01:51:52;5.75;;;2.72;;
27632;SDS011;15046;50.930;13.334;2023-02-21T01:54:41;7.22;;;2.95;;
27632;SDS011;15046;50.930;13.334;2023-02-21T01:57:32;4.80;;;2.40;;
27632;SDS011;15046;50.930;13.334;2023-02-21T02:00:18;5.97;;;2.60;;
27632;SDS011;15046;50.930;13.334;2023-02-21T02:03:07;5.65;;;2.67;;
27632;SDS011;15046;50.930;13.334;2023-02-21T02:05:57;4.60;;;2.38;;
27632;SDS011;15046;50.930;13.334;2023-02-21T02:08:44;5.90;;;2.53;;
27632;SDS011;15046;50.930;13.334;2023-02-21T02:38:14;5.38;;;2.20;;
27632;SDS011;15046;50.930;13.334;2023-02-21T02:40:52;5.22;;;2.60;;
27632;SDS011;15046;50.930;13.334;2023-02-21T02:46:37;5.55;;;2.47;;
27632;SDS011;15046;50.930;13.334;2023-02-21T02:49:08;3.87;;;2.10;;
27632;SDS011;15046;50.930;13.334;2023-02-21T02:51:38;5.05;;;2.60;;
27632;SDS011;15046;50.930;13.334;2023-02-21T02:54:05;5.80;;;2.42;;
27632;SDS011;15046;50.930;13.334;2023-02-21T02:56:30;7.57;;;3.42;;
27632;SDS011;15046;50.930;13.334;2023-02-21T02:59:20;6.25;;;3.00;;
27632;SDS011;15046;50.930;13.334;2023-02-21T03:07:07;5.47;;;2.80;;
27632;SDS011;15046;50.930;13.334;2023-02-21T03:09:47;7.68;;;2.58;;
27632;SDS011;15046;50.930;13.334;2023-02-21T03:15:31;6.93;;;3.28;;
27632;SDS011;15046;50.930;13.334;2023-02-21T03:18:01;6.70;;;3.13;;
27632;SDS011;15046;50.930;13.334;2023-02-21T03:20:32;5.80;;;3.03;;
27632;SDS011;15046;50.930;13.334;2023-02-21T03:23:01;7.80;;;3.22;;
27632;SDS011;15046;50.930;13.334;2023-02-21T03:25:28;6.72;;;2.90;;
27632;SDS011;15046;50.930;13.334;2023-02-21T03:27:56;7.15;;;2.85;;
27632;SDS011;15046;50.930;13.334;2023-02-21T03:30:26;7.43;;;3.03;;
27632;SDS011;15046;50.930;13.334;2023-02-21T03:32:54;6.90;;;3.28;;
27632;SDS011;15046;50.930;13.334;2023-02-21T03:35:20;6.50;;;2.75;;
27632;SDS011;15046;50.930;13.334;2023-02-21T03:37:50;6.13;;;3.10;;
27632;SDS011;15046;50.930;13.334;2023-02-21T03:40:30;4.90;;;2.70;;
27632;SDS011;15046;50.930;13.334;2023-02-21T03:42:58;5.82;;;2.88;;
27632;SDS011;15046;50.930;13.334;2023-02-21T03:45:27;6.18;;;2.72;;
27632;SDS011;15046;50.930;13.334;2023-02-21T03:47:53;7.40;;;3.58;;
27632;SDS011;15046;50.930;13.334;2023-02-21T03:50:19;8.23;;;3.38;;
27632;SDS011;15046;50.930;13.334;2023-02-21T03:52:45;7.70;;;3.17;;
27632;SDS011;15046;50.930;13.334;2023-02-21T03:55:12;6.18;;;3.28;;
27632;SDS011;15046;50.930;13.334;2023-02-21T03:57:38;6.07;;;3.28;;
27632;SDS011;15046;50.930;13.334;2023-02-21T04:00:04;7.65;;;3.38;;
27632;SDS011;15046;50.930;13.334;2023-02-21T04:02:30;6.22;;;3.13;;
27632;SDS011;15046;50.930;13.334;2023-02-21T04:04:56;6.60;;;4.18;;
27632;SDS011;15046;50.930;13.334;2023-02-21T04:07:22;6.05;;;3.00;;
27632;SDS011;15046;50.930;13.334;2023-02-21T04:09:49;7.20;;;3.03;;
27632;SDS011;15046;50.930;13.334;2023-02-21T04:12:15;9.10;;;3.38;;
27632;SDS011;15046;50.930;13.334;2023-02-21T04:14:41;7.20;;;3.50;;
27632;SDS011;15046;50.930;13.334;2023-02-21T04:17:07;9.15;;;4.28;;
27632;SDS011;15046;50.930;13.334;2023-02-21T04:19:32;10.25;;;4.05;;
27632;SDS011;15046;50.930;13.334;2023-02-21T04:21:58;7.60;;;3.75;;
27632;SDS011;15046;50.930;13.334;2023-02-21T04:24:24;7.32;;;3.25;;
27632;SDS011;15046;50.930;13.334;2023-02-21T04:26:50;8.80;;;4.22;;
27632;SDS011;15046;50.930;13.334;2023-02-21T04:29:16;7.50;;;3.63;;
27632;SDS011;15046;50.930;13.334;2023-02-21T04:31:42;6.72;;;3.63;;
27632;SDS011;15046;50.930;13.334;2023-02-21T04:34:08;8.27;;;4.53;;
27632;SDS011;15046;50.930;13.334;2023-02-21T04:36:34;7.00;;;3.65;;
27632;SDS011;15046;50.930;13.334;2023-02-21T04:39:02;7.53;;;4.32;;
27632;SDS011;15046;50.930;13.334;2023-02-21T04:41:28;7.88;;;3.70;;
27632;SDS011;15046;50.930;13.334;2023-02-21T04:43:55;7.03;;;3.63;;
27632;SDS011;15046;50.930;13.334;2023-02-21T04:46:22;7.07;;;4.10;;
27632;SDS011;15046;50.930;13.334;2023-02-21T04:48:49;7.97;;;3.83;;
27632;SDS011;15046;50.930;13.334;2023-02-21T04:51:16;10.63;;;4.88;;
27632;SDS011;15046;50.930;13.334;2023-02-21T04:53:48;7.93;;;3.90;;
27632;SDS011;15046;50.930;13.334;2023-02-21T04:56:16;8.55;;;4.57;;
27632;SDS011;15046;50.930;13.334;2023-02-21T04:58:45;13.13;;;4.95;;
27632;SDS011;15046;50.930;13.334;2023-02-21T05:01:12;9.52;;;5.43;;
27632;SDS011;15046;50.930;13.334;2023-02-21T05:03:39;6.93;;;4.05;;
27632;SDS011;15046;50.930;13.334;2023-02-21T05:06:05;8.70;;;4.65;;
27632;SDS011;15046;50.930;13.334;2023-02-21T05:08:32;9.52;;;5.35;;
27632;SDS011;15046;50.930;13.334;2023-02-21T05:10:57;9.15;;;4.82;;
27632;SDS011;15046;50.930;13.334;2023-02-21T05:13:24;9.93;;;4.90;;
27632;SDS011;15046;50.930;13.334;2023-02-21T05:15:51;9.52;;;4.65;;
27632;SDS011;15046;50.930;13.334;2023-02-21T05:18:17;8.25;;;4.60;;
27632;SDS011;15046;50.930;13.334;2023-02-21T05:20:47;10.95;;;5.57;;
27632;SDS011;15046;50.930;13.334;2023-02-21T05:23:15;9.55;;;4.80;;
27632;SDS011;15046;50.930;13.334;2023-02-21T05:25:58;10.65;;;5.57;;
27632;SDS011;15046;50.930;13.334;2023-02-21T05:28:28;9.80;;;5.00;;
27632;SDS011;15046;50.930;13.334;2023-02-21T05:30:54;10.63;;;5.25;;
27632;SDS011;15046;50.930;13.334;2023-02-21T05:33:21;10.43;;;5.22;;
27632;SDS011;15046;50.930;13.334;2023-02-21T05:35:49;9.85;;;5.40;;
27632;SDS011;15046;50.930;13.334;2023-02-21T05:38:18;9.90;;;5.25;;
27632;SDS011;15046;50.930;13.334;2023-02-21T05:40:45;10.02;;;5.07;;
27632;SDS011;15046;50.930;13.334;2023-02-21T05:43:11;9.90;;;5.15;;
27632;SDS011;15046;50.930;13.334;2023-02-21T05:45:38;10.43;;;5.15;;
27632;SDS011;15046;50.930;13.334;2023-02-21T05:48:04;10.60;;;5.10;;
27632;SDS011;15046;50.930;13.334;2023-02-21T05:50:30;13.73;;;6.03;;
27632;SDS011;15046;50.930;13.334;2023-02-21T05:52:56;12.88;;;6.03;;
27632;SDS011;15046;50.930;13.334;2023-02-21T05:55:23;10.05;;;5.38;;
27632;SDS011;15046;50.930;13.334;2023-02-21T05:57:49;11.25;;;5.35;;
27632;SDS011;15046;50.930;13.334;2023-02-21T06:00:19;12.90;;;6.15;;
27632;SDS011;15046;50.930;13.334;2023-02-21T06:02:52;13.50;;;6.43;;
27632;SDS011;15046;50.930;13.334;2023-02-21T06:05:18;9.05;;;4.63;;
27632;SDS011;15046;50.930;13.334;2023-02-21T06:07:45;12.07;;;5.15;;
27632;SDS011;15046;50.930;13.334;2023-02-21T06:10:12;9.95;;;5.63;;
27632;SDS011;15046;50.930;13.334;2023-02-21T06:12:38;12.93;;;6.57;;
27632;SDS011;15046;50.930;13.334;2023-02-21T06:15:05;10.77;;;5.75;;
27632;SDS011;15046;50.930;13.334;2023-02-21T06:17:34;14.88;;;5.63;;
27632;SDS011;15046;50.930;13.334;2023-02-21T06:20:01;12.43;;;7.20;;
27632;SDS011;15046;50.930;13.334;2023-02-21T06:22:28;11.50;;;5.63;;
27632;SDS011;15046;50.930;13.334;2023-02-21T06:24:54;14.77;;;6.13;;
27632;SDS011;15046;50.930;13.334;2023-02-21T06:27:20;12.77;;;6.55;;
27632;SDS011;15046;50.930;13.334;2023-02-21T06:29:46;11.82;;;5.97;;
27632;SDS011;15046;50.930;13.334;2023-02-21T06:32:12;13.35;;;6.50;;
27632;SDS011;15046;50.930;13.334;2023-02-21T06:34:38;13.75;;;6.68;;
27632;SDS011;15046;50.930;13.334;2023-02-21T06:37:04;12.43;;;6.18;;
27632;SDS011;15046;50.930;13.334;2023-02-21T06:39:31;12.05;;;6.10;;
27632;SDS011;15046;50.930;13.334;2023-02-21T06:41:57;11.73;;;6.35;;
27632;SDS011;15046;50.930;13.334;2023-02-21T06:44:23;14.30;;;6.88;;
27632;SDS011;15046;50.930;13.334;2023-02-21T06:46:49;13.52;;;6.90;;
27632;SDS011;15046;50.930;13.334;2023-02-21T06:49:15;12.63;;;6.45;;
27632;SDS011;15046;50.930;13.334;2023-02-21T06:51:41;12.57;;;6.10;;
27632;SDS011;15046;50.930;13.334;2023-02-21T06:54:08;13.52;;;7.13;;
27632;SDS011;15046;50.930;13.334;2023-02-21T06:56:34;15.10;;;7.38;;
27632;SDS011;15046;50.930;13.334;2023-02-21T06:59:01;10.93;;;6.65;;
27632;SDS011;15046;50.930;13.334;2023-02-21T07:01:27;14.73;;;6.88;;
27632;SDS011;15046;50.930;13.334;2023-02-21T07:03:54;15.18;;;6.30;;
27632;SDS011;15046;50.930;13.334;2023-02-21T07:06:22;12.90;;;6.45;;
27632;SDS011;15046;50.930;13.334;2023-02-21T07:08:49;13.13;;;6.72;;
27632;SDS011;15046;50.930;13.334;2023-02-21T07:11:15;14.80;;;6.95;;
27632;SDS011;15046;50.930;13.334;2023-02-21T07:13:46;13.93;;;7.05;;
27632;SDS011;15046;50.930;13.334;2023-02-21T07:16:18;12.10;;;6.45;;
27632;SDS011;15046;50.930;13.334;2023-02-21T07:18:44;12.85;;;7.10;;
27632;SDS011;15046;50.930;13.334;2023-02-21T07:21:11;12.52;;;7.25;;
27632;SDS011;15046;50.930;13.334;2023-02-21T07:23:38;13.15;;;7.07;;
27632;SDS011;15046;50.930;13.334;2023-02-21T07:26:04;15.43;;;7.60;;
27632;SDS011;15046;50.930;13.334;2023-02-21T07:28:30;13.82;;;7.07;;
27632;SDS011;15046;50.930;13.334;2023-02-21T07:30:56;14.05;;;7.53;;
27632;SDS011;15046;50.930;13.334;2023-02-21T07:33:22;14.48;;;7.45;;
27632;SDS011;15046;50.930;13.334;2023-02-21T07:35:48;13.95;;;7.30;;
27632;SDS011;15046;50.930;13.334;2023-02-21T07:38:23;14.60;;;7.78;;
27632;SDS011;15046;50.930;13.334;2023-02-21T07:40:55;12.27;;;6.60;;
27632;SDS011;15046;50.930;13.334;2023-02-21T07:43:23;14.35;;;7.43;;
27632;SDS011;15046;50.930;13.334;2023-02-21T07:45:49;13.27;;;7.95;;
27632;SDS011;15046;50.930;13.334;2023-02-21T07:48:15;14.75;;;8.15;;
27632;SDS011;15046;50.930;13.334;2023-02-21T07:50:41;13.88;;;7.30;;
27632;SDS011;15046;50.930;13.334;2023-02-21T07:53:08;14.40;;;8.07;;
27632;SDS011;15046;50.930;13.334;2023-02-21T07:55:35;14.50;;;7.43;;
27632;SDS011;15046;50.930;13.334;2023-02-21T07:58:01;15.07;;;8.10;;
27632;SDS011;15046;50.930;13.334;2023-02-21T08:00:27;17.42;;;8.48;;
27632;SDS011;15046;50.930;13.334;2023-02-21T08:02:53;14.27;;;7.78;;
27632;SDS011;15046;50.930;13.334;2023-02-21T08:05:20;15.65;;;7.65;;
27632;SDS011;15046;50.930;13.334;2023-02-21T08:07:46;16.15;;;8.25;;
27632;SDS011;15046;50.930;13.334;2023-02-21T08:10:13;14.93;;;8.00;;
27632;SDS011;15046;50.930;13.334;2023-02-21T08:12:51;15.75;;;8.68;;
27632;SDS011;15046;50.930;13.334;2023-02-21T08:15:17;15.70;;;7.93;;
27632;SDS011;15046;50.930;13.334;2023-02-21T08:17:43;14.95;;;8.35;;
27632;SDS011;15046;50.930;13.334;2023-02-21T08:20:13;17.67;;;8.02;;
27632;SDS011;15046;50.930;13.334;2023-02-21T08:22:39;14.45;;;7.63;;
27632;SDS011;15046;50.930;13.334;2023-02-21T08:25:05;14.35;;;7.97;;
27632;SDS011;15046;50.930;13.334;2023-02-21T08:27:31;13.73;;;7.47;;
27632;SDS011;15046;50.930;13.334;2023-02-21T08:29:57;13.13;;;7.05;;
27632;SDS011;15046;50.930;13.334;2023-02-21T08:32:23;15.85;;;7.80;;
27632;SDS011;15046;50.930;13.334;2023-02-21T08:34:49;12.13;;;5.80;;
27632;SDS011;15046;50.930;13.334;2023-02-21T08:37:15;14.32;;;7.38;;
27632;SDS011;15046;50.930;13.334;2023-02-21T08:39:44;14.80;;;7.65;;
27632;SDS011;15046;50.930;13.334;2023-02-21T08:42:11;13.27;;;7.55;;
27632;SDS011;15046;50.930;13.334;2023-02-21T08:44:38;13.00;;;7.15;;
27632;SDS011;15046;50.930;13.334;2023-02-21T08:47:04;14.50;;;7.18;;
27632;SDS011;15046;50.930;13.334;2023-02-21T08:49:31;13.25;;;7.63;;
27632;SDS011;15046;50.930;13.334;2023-02-21T08:51:57;12.52;;;6.70;;
27632;SDS011;15046;50.930;13.334;2023-02-21T08:54:23;11.82;;;6.35;;
27632;SDS011;15046;50.930;13.334;2023-02-21T08:56:49;12.93;;;7.45;;
27632;SDS011;15046;50.930;13.334;2023-02-21T08:59:16;12.98;;;7.15;;
27632;SDS011;15046;50.930;13.334;2023-02-21T09:01:41;11.73;;;6.45;;
27632;SDS011;15046;50.930;13.334;2023-02-21T09:04:07;13.25;;;6.88;;
27632;SDS011;15046;50.930;13.334;2023-02-21T09:06:33;12.98;;;6.18;;
27632;SDS011;15046;50.930;13.334;2023-02-21T09:08:59;13.15;;;7.22;;
27632;SDS011;15046;50.930;13.334;2023-02-21T09:11:25;15.85;;;6.90;;
27632;SDS011;15046;50.930;13.334;2023-02-21T09:13:51;13.23;;;6.65;;
27632;SDS011;15046;50.930;13.334;2023-02-21T09:16:19;10.57;;;5.85;;
27632;SDS011;15046;50.930;13.334;2023-02-21T09:18:52;14.15;;;7.00;;
27632;SDS011;15046;50.930;13.334;2023-02-21T09:21:19;14.80;;;6.32;;
27632;SDS011;15046;50.930;13.334;2023-02-21T09:23:45;15.68;;;7.75;;
27632;SDS011;15046;50.930;13.334;2023-02-21T09:26:11;13.13;;;6.43;;
27632;SDS011;15046;50.930;13.334;2023-02-21T09:28:37;11.48;;;5.57;;
27632;SDS011;15046;50.930;13.334;2023-02-21T09:31:07;10.88;;;6.32;;
27632;SDS011;15046;50.930;13.334;2023-02-21T09:33:35;12.48;;;6.22;;
27632;SDS011;15046;50.930;13.334;2023-02-21T09:36:05;12.60;;;6.47;;
27632;SDS011;15046;50.930;13.334;2023-02-21T09:38:35;12.20;;;6.63;;
27632;SDS011;15046;50.930;13.334;2023-02-21T09:41:02;11.82;;;5.40;;
27632;SDS011;15046;50.930;13.334;2023-02-21T09:43:31;15.10;;;6.85;;
27632;SDS011;15046;50.930;13.334;2023-02-21T09:46:01;12.80;;;6.60;;
27632;SDS011;15046;50.930;13.334;2023-02-21T09:48:51;12.60;;;6.45;;
27632;SDS011;15046;50.930;13.334;2023-02-21T09:51:18;14.90;;;7.30;;
27632;SDS011;15046;50.930;13.334;2023-02-21T09:53:46;12.68;;;6.05;;
27632;SDS011;15046;50.930;13.334;2023-02-21T09:56:22;12.23;;;6.78;;
27632;SDS011;15046;50.930;13.334;2023-02-21T09:58:58;12.73;;;6.28;;
27632;SDS011;15046;50.930;13.334;2023-02-21T10:01:42;14.30;;;7.05;;
27632;SDS011;15046;50.930;13.334;2023-02-21T10:07:17;13.02;;;6.90;;
27632;SDS011;15046;50.930;13.334;2023-02-21T10:10:06;12.27;;;6.15;;
27632;SDS011;15046;50.930;13.334;2023-02-21T10:18:35;11.02;;;6.45;;
27632;SDS011;15046;50.930;13.334;2023-02-21T10:21:02;12.07;;;5.72;;
27632;SDS011;15046;50.930;13.334;2023-02-21T10:23:45;11.52;;;5.80;;
27632;SDS011;15046;50.930;13.334;2023-02-21T10:26:26;14.07;;;6.47;;
27632;SDS011;15046;50.930;13.334;2023-02-21T10:28:53;12.68;;;5.57;;
27632;SDS011;15046;50.930;13.334;2023-02-21T10:34:04;11.68;;;6.03;;
27632;SDS011;15046;50.930;13.334;2023-02-21T10:36:31;11.70;;;5.90;;
27632;SDS011;15046;50.930;13.334;2023-02-21T10:39:03;10.82;;;5.53;;
27632;SDS011;15046;50.930;13.334;2023-02-21T10:41:35;12.95;;;6.25;;
27632;SDS011;15046;50.930;13.334;2023-02-21T10:44:11;12.32;;;5.65;;
27632;SDS011;15046;50.930;13.334;2023-02-21T10:46:43;13.13;;;5.95;;
27632;SDS011;15046;50.930;13.334;2023-02-21T10:49:34;10.77;;;5.90;;
27632;SDS011;15046;50.930;13.334;2023-02-21T10:52:12;10.20;;;5.80;;
27632;SDS011;15046;50.930;13.334;2023-02-21T10:54:58;11.82;;;5.15;;
27632;SDS011;15046;50.930;13.334;2023-02-21T10:57:29;10.80;;;5.78;;
27632;SDS011;15046;50.930;13.334;2023-02-21T10:59:57;11.38;;;5.57;;
27632;SDS011;15046;50.930;13.334;2023-02-21T11:02:37;10.75;;;6.35;;
27632;SDS011;15046;50.930;13.334;2023-02-21T11:05:13;10.50;;;5.57;;
27632;SDS011;15046;50.930;13.334;2023-02-21T11:08:01;12.52;;;5.07;;
27632;SDS011;15046;50.930;13.334;2023-02-21T11:10:42;12.68;;;5.15;;
27632;SDS011;15046;50.930;13.334;2023-02-21T11:15:39;12.43;;;6.05;;
27632;SDS011;15046;50.930;13.334;2023-02-21T11:18:12;10.32;;;4.80;;
27632;SDS011;15046;50.930;13.334;2023-02-21T11:20:46;8.90;;;4.65;;
27632;SDS011;15046;50.930;13.334;2023-02-21T11:23:19;9.65;;;4.90;;
27632;SDS011;15046;50.930;13.334;2023-02-21T11:26:12;8.85;;;4.65;;
27632;SDS011;15046;50.930;13.334;2023-02-21T11:28:39;10.40;;;5.10;;
27632;SDS011;15046;50.930;13.334;2023-02-21T11:31:12;13.00;;;5.47;;
27632;SDS011;15046;50.930;13.334;2023-02-21T11:33:53;9.13;;;4.53;;
27632;SDS011;15046;50.930;13.334;2023-02-21T11:36:31;10.52;;;4.88;;
27632;SDS011;15046;50.930;13.334;2023-02-21T11:39:00;10.18;;;5.30;;
27632;SDS011;15046;50.930;13.334;2023-02-21T11:41:30;8.02;;;4.50;;
27632;SDS011;15046;50.930;13.334;2023-02-21T11:44:24;11.32;;;5.15;;
27632;SDS011;15046;50.930;13.334;2023-02-21T11:49:42;9.55;;;4.68;;
27632;SDS011;15046;50.930;13.334;2023-02-21T11:52:13;9.50;;;4.93;;
27632;SDS011;15046;50.930;13.334;2023-02-21T11:54:44;8.02;;;4.43;;
27632;SDS011;15046;50.930;13.334;2023-02-21T12:00:08;10.38;;;5.00;;
27632;SDS011;15046;50.930;13.334;2023-02-21T12:08:17;10.48;;;5.22;;
27632;SDS011;15046;50.930;13.334;2023-02-21T12:11:09;12.20;;;5.38;;
27632;SDS011;15046;50.930;13.334;2023-02-21T12:17:08;9.85;;;4.93;;
27632;SDS011;15046;50.930;13.334;2023-02-21T12:25:19;7.53;;;4.28;;
27632;SDS011;15046;50.930;13.334;2023-02-21T12:31:03;9.38;;;4.30;;
27632;SDS011;15046;50.930;13.334;2023-02-21T12:43:07;11.07;;;5.38;;
27632;SDS011;15046;50.930;13.334;2023-02-21T12:45:17;8.80;;;5.10;;
27632;SDS011;15046;50.930;13.334;2023-02-21T12:47:55;11.18;;;4.72;;
27632;SDS011;15046;50.930;13.334;2023-02-21T12:50:28;8.93;;;4.75;;
27632;SDS011;15046;50.930;13.334;2023-02-21T12:53:02;9.27;;;4.88;;
27632;SDS011;15046;50.930;13.334;2023-02-21T12:58:35;8.07;;;4.22;;
27632;SDS011;15046;50.930;13.334;2023-02-21T13:03:39;11.20;;;5.03;;
27632;SDS011;15046;50.930;13.334;2023-02-21T13:06:32;8.98;;;4.00;;
27632;SDS011;15046;50.930;13.334;2023-02-21T13:14:26;9.35;;;4.20;;
27632;SDS011;15046;50.930;13.334;2023-02-21T13:16:59;8.60;;;4.30;;
27632;SDS011;15046;50.930;13.334;2023-02-21T13:19:25;9.15;;;4.28;;
27632;SDS011;15046;50.930;13.334;2023-02-21T13:22:05;8.45;;;4.47;;
27632;SDS011;15046;50.930;13.334;2023-02-21T13:25:41;8.27;;;4.70;;
27632;SDS011;15046;50.930;13.334;2023-02-21T13:28:23;9.50;;;4.68;;
27632;SDS011;15046;50.930;13.334;2023-02-21T13:30:59;9.68;;;4.30;;
27632;SDS011;15046;50.930;13.334;2023-02-21T13:33:42;9.20;;;4.63;;
27632;SDS011;15046;50.930;13.334;2023-02-21T13:36:19;10.15;;;4.60;;
27632;SDS011;15046;50.930;13.334;2023-02-21T13:39:00;8.25;;;4.25;;
27632;SDS011;15046;50.930;13.334;2023-02-21T13:41:33;8.88;;;4.07;;
27632;SDS011;15046;50.930;13.334;2023-02-21T13:44:06;7.82;;;4.20;;
27632;SDS011;15046;50.930;13.334;2023-02-21T14:08:26;8.85;;;4.28;;
27632;SDS011;15046;50.930;13.334;2023-02-21T14:13:34;10.70;;;5.00;;
27632;SDS011;15046;50.930;13.334;2023-02-21T14:16:24;9.52;;;4.53;;
27632;SDS011;15046;50.930;13.334;2023-02-21T14:19:06;11.95;;;4.60;;
27632;SDS011;15046;50.930;13.334;2023-02-21T14:21:41;10.13;;;5.22;;
27632;SDS011;15046;50.930;13.334;2023-02-21T14:24:21;9.43;;;4.75;;
27632;SDS011;15046;50.930;13.334;2023-02-21T14:26:56;9.82;;;4.50;;
27632;SDS011;15046;50.930;13.334;2023-02-21T14:29:35;12.00;;;5.25;;
27632;SDS011;15046;50.930;13.334;2023-02-21T14:34:38;7.47;;;4.35;;
27632;SDS011;15046;50.930;13.334;2023-02-21T14:37:15;10.35;;;4.53;;
27632;SDS011;15046;50.930;13.334;2023-02-21T14:39:54;9.55;;;4.30;;
27632;SDS011;15046;50.930;13.334;2023-02-21T15:02:49;7.95;;;3.83;;
27632;SDS011;15046;50.930;13.334;2023-02-21T15:05:35;8.70;;;3.90;;
27632;SDS011;15046;50.930;13.334;2023-02-21T15:08:22;9.57;;;3.97;;
27632;SDS011;15046;50.930;13.334;2023-02-21T15:10:49;9.85;;;4.60;;
27632;SDS011;15046;50.930;13.334;2023-02-21T15:13:30;9.43;;;4.68;;
27632;SDS011;15046;50.930;13.334;2023-02-21T15:18:41;12.82;;;5.07;;
27632;SDS011;15046;50.930;13.334;2023-02-21T15:21:24;8.45;;;4.57;;
27632;SDS011;15046;50.930;13.334;2023-02-21T15:24:05;8.00;;;4.15;;
27632;SDS011;15046;50.930;13.334;2023-02-21T15:26:39;8.23;;;4.25;;
27632;SDS011;15046;50.930;13.334;2023-02-21T15:29:15;8.88;;;4.60;;
27632;SDS011;15046;50.930;13.334;2023-02-21T15:31:49;8.35;;;4.28;;
27632;SDS011;15046;50.930;13.334;2023-02-21T15:34:20;8.80;;;4.65;;
27632;SDS011;15046;50.930;13.334;2023-02-21T15:37:32;8.93;;;4.70;;
27632;SDS011;15046;50.930;13.334;2023-02-21T15:39:54;13.00;;;4.97;;
27632;SDS011;15046;50.930;13.334;2023-02-21T15:42:22;10.48;;;5.32;;
27632;SDS011;15046;50.930;13.334;2023-02-21T15:50:07;11.43;;;5.53;;
27632;SDS011;15046;50.930;13.334;2023-02-21T15:52:38;9.00;;;4.82;;
27632;SDS011;15046;50.930;13.334;2023-02-21T15:55:20;10.52;;;4.47;;
27632;SDS011;15046;50.930;13.334;2023-02-21T15:58:13;9.18;;;4.75;;
27632;SDS011;15046;50.930;13.334;2023-02-21T16:00:40;9.25;;;4.88;;
27632;SDS011;15046;50.930;13.334;2023-02-21T16:14:05;11.13;;;4.80;;
27632;SDS011;15046;50.930;13.334;2023-02-21T16:16:39;8.93;;;4.80;;
27632;SDS011;15046;50.930;13.334;2023-02-21T16:19:05;9.30;;;5.00;;
27632;SDS011;15046;50.930;13.334;2023-02-21T16:21:31;11.32;;;4.50;;
27632;SDS011;15046;50.930;13.334;2023-02-21T16:23:57;10.30;;;4.90;;
27632;SDS011;15046;50.930;13.334;2023-02-21T16:26:39;10.50;;;5.22;;
27632;SDS011;15046;50.930;13.334;2023-02-21T16:29:05;12.23;;;6.00;;
27632;SDS011;15046;50.930;13.334;2023-02-21T16:31:32;14.93;;;6.85;;
27632;SDS011;15046;50.930;13.334;2023-02-21T16:34:00;10.90;;;5.60;;
27632;SDS011;15046;50.930;13.334;2023-02-21T16:36:28;13.40;;;5.43;;
27632;SDS011;15046;50.930;13.334;2023-02-21T16:38:56;11.63;;;5.35;;
27632;SDS011;15046;50.930;13.334;2023-02-21T16:41:23;10.50;;;5.38;;
27632;SDS011;15046;50.930;13.334;2023-02-21T16:43:49;9.98;;;5.85;;
27632;SDS011;15046;50.930;13.334;2023-02-21T16:46:22;14.25;;;6.28;;
27632;SDS011;15046;50.930;13.334;2023-02-21T16:48:51;10.05;;;5.40;;
27632;SDS011;15046;50.930;13.334;2023-02-21T16:51:18;10.30;;;5.00;;
27632;SDS011;15046;50.930;13.334;2023-02-21T16:53:44;13.52;;;6.40;;
27632;SDS011;15046;50.930;13.334;2023-02-21T16:56:11;11.40;;;5.05;;
27632;SDS011;15046;50.930;13.334;2023-02-21T16:58:39;11.45;;;5.60;;
27632;SDS011;15046;50.930;13.334;2023-02-21T17:01:27;9.88;;;5.32;;
27632;SDS011;15046;50.930;13.334;2023-02-21T17:03:57;12.13;;;6.05;;
27632;SDS011;15046;50.930;13.334;2023-02-21T17:06:23;10.07;;;5.20;;
27632;SDS011;15046;50.930;13.334;2023-02-21T17:08:51;10.07;;;5.32;;
27632;SDS011;15046;50.930;13.334;2023-02-21T17:11:17;10.57;;;5.72;;
27632;SDS011;15046;50.930;13.334;2023-02-21T17:13:43;11.48;;;5.05;;
27632;SDS011;15046;50.930;13.334;2023-02-21T17:16:09;11.00;;;5.22;;
27632;SDS011;15046;50.930;13.334;2023-02-21T17:18:35;9.02;;;5.13;;
27632;SDS011;15046;50.930;13.334;2023-02-21T17:21:01;11.60;;;5.47;;
27632;SDS011;15046;50.930;13.334;2023-02-21T17:23:27;9.65;;;5.20;;
27632;SDS011;15046;50.930;13.334;2023-02-21T17:25:53;13.00;;;5.60;;
27632;SDS011;15046;50.930;13.334;2023-02-21T17:28:19;9.65;;;5.03;;
27632;SDS011;15046;50.930;13.334;2023-02-21T17:30:45;8.93;;;4.38;;
27632;SDS011;15046;50.930;13.334;2023-02-21T17:33:11;11.90;;;4.97;;
27632;SDS011;15046;50.930;13.334;2023-02-21T17:35:38;8.90;;;5.20;;
27632;SDS011;15046;50.930;13.334;2023-02-21T17:38:04;10.20;;;4.70;;
27632;SDS011;15046;50.930;13.334;2023-02-21T17:40:30;9.32;;;5.25;;
27632;SDS011;15046;50.930;13.334;2023-02-21T17:42:56;10.43;;;5.32;;